Mmadinare, Botswana

72°F / 22°C
Clear
Humidity: 69%
Dew Point: 61°F / 16°C
Wind: ESE at 8 mph / 13 km/h
Pressure: 30.98 in / 1049 hPa (Rising)
Visibility: -
Clouds:
Yesterday's Maximum: 90°F / 32°C
Yesterday's Minimum: 73°F / 23°C approx.
Yesterday's Cooling Degree Days: 17 approx.
Sunrise:6:02 AM CAT
Sunset:6:42 PM CAT
Moon Rise:9:09 PM CAT
Moon Set:8:45 AM CAT
Moon Phase Waning Gibbous
NOAA Weather Radio
No local feed.
METAR FBFT 221900Z 12007KT CAVOK 22/16 Q1049
As of: 9:00 PM CAT on February 22, 2019
Observed at: Francistown, Botswana

View Station's History

Local Satellite

Current Satellite Forecast
Region Default Local
No Yes

View Full Screen WunderMap

Forecast

Current Satellite Forecast
Thursday
. High: 89° F. / 31° C.

. High: 84° F. / 29° C.

Features

Weather Apps

WunderRadio

Weather Underground Apps
Check out our wide variety of mobile and setup applications.

Weather Underground Applications

Top of Page

© Copyright 2019
The Weather Company, LLC